Terminal Aerodrome Forecast
Issued by NWS Cleveland, OH

Home | Current Version | Previous Version | Graphics & Text | Print | Product List | Glossary Off
Versions: 1 2 3 4 5 6 7 8 9 10 11 12 13 14 15 16 17 18 19 20

368
FTUS41 KCLE 121134
TAFYNG
TAF
KYNG 121134Z 1212/1312 20007KT P6SM OVC040
     FM121800 23012G18KT 6SM -SHSN OVC035
     FM122100 25014G20KT 3SM -SHSN OVC020
     FM130000 29014G22KT 1 1/2SM -SHSN OVC010=

USA.gov is the U.S. government's official web portal to all federal, state and local government web resources and services.